Time;durP1;ratioP1;P1;durP2;ratioP2;P2;SDS_P1;SDS_P2;PMS_P1;PMS_P2;Temp;Humidity;BMP_temperature;BMP_pressure;BME280_temperature;BME280_humidity;BME280_pressure;Samples;Min_cycle;Max_cycle;Signal;HPM_P1;HPM_P2
2021/12/12 00:00:14;;;;;;;18.30;9.43;;;;;;;0.83;100.00;100838.55;1375658;104;21135;-71
2021/12/12 00:03:01;;;;;;;19.13;10.17;;;;;;;0.84;100.00;100839.44;1375982;104;21160;-70
2021/12/12 00:05:42;;;;;;;17.23;9.20;;;;;;;0.86;100.00;100841.53;1395190;103;21649;-70
2021/12/12 00:08:11;;;;;;;17.83;9.90;;;;;;;0.88;100.00;100850.28;1358484;104;21265;-70
2021/12/12 00:10:41;;;;;;;19.40;10.23;;;;;;;0.90;100.00;100853.70;1332600;108;21174;-70
2021/12/12 00:13:13;;;;;;;19.30;10.50;;;;;;;0.91;100.00;100848.30;1302615;108;21189;-71
2021/12/12 00:15:40;;;;;;;18.20;9.77;;;;;;;0.91;100.00;100842.12;1323438;108;21591;-71
2021/12/12 00:18:07;;;;;;;16.83;9.67;;;;;;;0.91;100.00;100851.44;1323380;108;21206;-71
2021/12/12 00:20:35;;;;;;;18.83;9.80;;;;;;;0.90;100.00;100857.25;1333153;106;21208;-71
2021/12/12 00:23:02;;;;;;;21.87;12.23;;;;;;;0.88;100.00;100853.79;1344101;107;21205;-71
2021/12/12 00:25:33;;;;;;;20.17;10.87;;;;;;;0.87;100.00;100848.58;1344058;107;21172;-70
2021/12/12 00:28:00;;;;;;;18.70;9.93;;;;;;;0.84;100.00;100845.61;1344190;107;21220;-70
2021/12/12 00:30:27;;;;;;;15.20;8.33;;;;;;;0.84;100.00;100851.41;1343916;107;21126;-70
2021/12/12 00:32:54;;;;;;;14.37;7.63;;;;;;;0.84;100.00;100853.59;1345527;102;21164;-71
2021/12/12 00:35:21;;;;;;;16.70;9.33;;;;;;;0.82;100.00;100856.83;1417122;101;21142;-70
2021/12/12 00:37:52;;;;;;;16.93;9.63;;;;;;;0.80;100.00;100856.06;1407214;100;21150;-71
2021/12/12 00:40:37;;;;;;;16.73;9.30;;;;;;;0.80;100.00;100853.84;1469670;96;21153;-70
2021/12/12 00:43:10;;;;;;;18.03;9.47;;;;;;;0.80;100.00;100855.17;1501521;94;21576;-69
2021/12/12 00:45:37;;;;;;;16.93;9.07;;;;;;;0.81;100.00;100858.23;1498370;96;21143;-71
2021/12/12 00:48:04;;;;;;;16.17;8.50;;;;;;;0.82;100.00;100863.96;1518035;94;21075;-71
2021/12/12 00:50:36;;;;;;;17.60;9.67;;;;;;;0.82;100.00;100859.48;1518138;94;21085;-71
2021/12/12 00:53:07;;;;;;;16.45;9.20;;;;;;;0.81;100.00;100867.08;1502611;94;21583;-71
2021/12/12 00:55:37;;;;;;;17.30;9.17;;;;;;;0.79;100.00;100869.45;1520487;94;21528;-71
2021/12/12 00:58:07;;;;;;;17.13;8.97;;;;;;;0.79;100.00;100853.48;1520417;94;21610;-70
2021/12/12 01:00:38;;;;;;;17.23;9.17;;;;;;;0.77;100.00;100846.91;1520245;94;21166;-70
2021/12/12 01:03:07;;;;;;;16.80;9.00;;;;;;;0.73;100.00;100851.55;1520499;94;21111;-70
2021/12/12 01:05:37;;;;;;;16.03;8.67;;;;;;;0.72;100.00;100856.48;1582183;90;21056;-71
2021/12/12 01:08:06;;;;;;;16.00;8.57;;;;;;;0.72;100.00;100859.63;1596613;90;21075;-71
2021/12/12 01:10:38;;;;;;;17.50;8.70;;;;;;;0.72;100.00;100851.64;1597543;90;21552;-71
2021/12/12 01:13:06;;;;;;;17.17;9.07;;;;;;;0.73;100.00;100855.55;1567519;91;21094;-71
2021/12/12 01:15:44;;;;;;;16.33;8.63;;;;;;;0.75;100.00;100858.13;1597798;90;21040;-70
2021/12/12 01:18:16;;;;;;;17.90;9.10;;;;;;;0.78;100.00;100871.27;1597918;90;21041;-69
2021/12/12 01:20:52;;;;;;;19.20;9.93;;;;;;;0.82;100.00;100878.61;1597684;90;21125;-73
2021/12/12 01:23:28;;;;;;;18.07;9.23;;;;;;;0.82;100.00;100877.27;1597762;90;21140;-70
2021/12/12 01:25:55;;;;;;;16.13;8.77;;;;;;;0.81;100.00;100874.22;1567245;89;21148;-71
2021/12/12 01:28:26;;;;;;;17.27;9.60;;;;;;;0.78;100.00;100865.06;1538462;93;21567;-70
2021/12/12 01:30:55;;;;;;;17.97;9.17;;;;;;;0.74;100.00;100871.92;1559118;92;21089;-71
2021/12/12 01:33:32;;;;;;;16.40;8.53;;;;;;;0.71;100.00;100873.41;1538657;93;21134;-71
2021/12/12 01:35:51;;;;;;;17.10;9.27;;;;;;;0.72;100.00;100871.13;1556184;92;21126;-70
2021/12/12 01:41:04;;;;;;;18.57;9.53;;;;;;;0.71;100.00;100848.13;1537795;91;21583;-70
2021/12/12 01:43:45;;;;;;;17.13;8.90;;;;;;;0.71;100.00;100847.28;1564941;91;21601;-71
2021/12/12 01:46:26;;;;;;;17.23;8.70;;;;;;;0.69;100.00;100846.03;1565532;91;21073;-70
2021/12/12 01:49:12;;;;;;;18.10;9.30;;;;;;;0.68;100.00;100844.78;1569722;89;21116;-69
2021/12/12 01:51:39;;;;;;;22.20;11.33;;;;;;;0.64;100.00;100839.23;1613591;88;21079;-70
2021/12/12 01:54:07;;;;;;;18.63;9.27;;;;;;;0.62;100.00;100835.80;1610686;89;21620;-70
2021/12/12 01:56:49;;;;;;;19.37;9.73;;;;;;;0.59;100.00;100834.19;1611065;89;21099;-71
2021/12/12 01:59:16;;;;;;;18.27;10.10;;;;;;;0.61;100.00;100839.42;1583133;90;21078;-70
2021/12/12 02:01:51;;;;;;;19.40;10.53;;;;;;;0.61;100.00;100843.42;1586169;90;21067;-72
2021/12/12 02:04:22;;;;;;;20.33;10.80;;;;;;;0.61;100.00;100838.09;1586123;90;21086;-71
2021/12/12 02:06:50;;;;;;;22.75;11.53;;;;;;;0.59;100.00;100852.82;1586354;90;21530;-70
2021/12/12 02:09:18;;;;;;;19.90;10.47;;;;;;;0.57;100.00;100853.38;1585970;90;21098;-71
2021/12/12 02:11:47;;;;;;;19.03;9.67;;;;;;;0.57;100.00;100869.35;1586163;85;21075;-71
2021/12/12 02:14:17;;;;;;;18.63;10.23;;;;;;;0.53;100.00;100871.33;1595959;88;21069;-70
2021/12/12 02:16:48;;;;;;;18.60;9.73;;;;;;;0.49;100.00;100867.58;1597035;90;21071;-72
2021/12/12 02:19:17;;;;;;;19.17;10.10;;;;;;;0.43;100.00;100855.97;1592871;90;21075;-69
2021/12/12 02:22:08;;;;;;;18.40;10.10;;;;;;;0.42;100.00;100858.23;1585917;90;21055;-71
2021/12/12 02:37:51;;;;;;;18.93;9.90;;;;;;;0.29;100.00;100825.66;1533022;93;21087;-71
2021/12/12 02:40:26;;;;;;;20.53;10.37;;;;;;;0.30;100.00;100818.53;1529700;93;21085;-71
2021/12/12 02:42:53;;;;;;;20.13;10.67;;;;;;;0.30;100.00;100815.87;1511209;94;21095;-70
2021/12/12 02:45:21;;;;;;;16.77;8.83;;;;;;;0.29;100.00;100823.00;1511347;95;21091;-70
2021/12/12 02:47:54;;;;;;;17.80;9.17;;;;;;;0.28;100.00;100821.75;1511249;94;21151;-71
2021/12/12 02:50:21;;;;;;;19.77;9.97;;;;;;;0.25;100.00;100813.93;1508601;95;21142;-69
2021/12/12 02:52:57;;;;;;;17.63;9.47;;;;;;;0.23;100.00;100819.37;1514974;95;21134;-71
2021/12/12 02:55:27;;;;;;;17.90;9.60;;;;;;;0.21;100.00;100823.04;1491556;96;21170;-71
2021/12/12 02:57:55;;;;;;;18.47;9.20;;;;;;;0.18;100.00;100833.39;1480259;96;21086;-69
2021/12/12 03:00:25;;;;;;;16.30;8.77;;;;;;;0.20;100.00;100841.29;1480015;95;21098;-69
2021/12/12 03:02:58;;;;;;;15.80;8.70;;;;;;;0.20;100.00;100845.28;1511219;94;21107;-70
2021/12/12 03:05:24;;;;;;;17.30;8.70;;;;;;;0.19;100.00;100851.05;1523542;94;21107;-70
2021/12/12 03:07:50;;;;;;;18.10;8.70;;;;;;;0.15;100.00;100846.84;1523650;93;21063;-70
2021/12/12 03:10:23;;;;;;;17.57;9.20;;;;;;;0.12;100.00;100843.02;1583042;89;21090;-69
2021/12/12 03:12:52;;;;;;;;;;;;;;;0.10;100.00;100831.61;1599331;89;21125;-71
2021/12/12 03:15:26;;;;;;;18.03;9.03;;;;;;;0.10;100.00;100831.61;1583956;91;20118;-70
2021/12/12 03:17:56;;;;;;;18.10;9.70;;;;;;;0.09;100.00;100828.55;1583653;91;21573;-69
2021/12/12 03:20:31;;;;;;;18.97;9.90;;;;;;;0.06;100.00;100829.59;1583900;91;21534;-71
2021/12/12 03:23:10;;;;;;;20.93;10.00;;;;;;;0.05;100.00;100837.17;1583699;90;21104;-69
2021/12/12 03:25:39;;;;;;;18.37;9.50;;;;;;;0.03;100.00;100843.53;1583726;89;21144;-70
2021/12/12 03:28:08;;;;;;;18.73;9.67;;;;;;;-0.02;100.00;100838.00;1555995;92;21080;-69
2021/12/12 03:30:35;;;;;;;19.10;9.30;;;;;;;-0.03;100.00;100824.79;1583686;90;21040;-70
2021/12/12 03:33:02;;;;;;;19.53;9.30;;;;;;;-0.07;100.00;100842.71;1583782;90;21056;-70
2021/12/12 03:35:31;;;;;;;19.87;9.07;;;;;;;-0.10;100.00;100844.20;1556275;92;21063;-70
2021/12/12 03:37:57;;;;;;;19.60;9.73;;;;;;;-0.12;100.00;100851.41;1583689;91;21569;-71
2021/12/12 03:40:32;;;;;;;18.93;9.60;;;;;;;-0.14;100.00;100854.62;1557298;91;21129;-69
2021/12/12 03:43:00;;;;;;;19.27;9.33;;;;;;;-0.15;100.00;100849.38;1548164;93;21111;-70
2021/12/12 03:45:27;;;;;;;17.83;9.70;;;;;;;-0.16;100.00;100852.97;1575502;89;21122;-70
2021/12/12 03:48:00;;;;;;;19.83;9.83;;;;;;;-0.18;100.00;100845.07;1575357;91;21131;-71
2021/12/12 03:50:31;;;;;;;22.40;10.73;;;;;;;-0.20;100.00;100840.31;1575728;91;21035;-70
2021/12/12 03:52:58;;;;;;;20.27;10.07;;;;;;;-0.20;100.00;100829.68;1533430;93;21648;-70
2021/12/12 03:55:27;;;;;;;19.67;9.90;;;;;;;-0.18;100.00;100838.91;1538015;93;21154;-70
2021/12/12 03:57:54;;;;;;;20.83;10.93;;;;;;;-0.19;100.00;100830.08;1538209;93;21100;-71
2021/12/12 04:00:30;;;;;;;21.50;10.97;;;;;;;-0.20;100.00;100815.91;1537775;93;21157;-71
2021/12/12 04:02:57;;;;;;;20.17;9.80;;;;;;;-0.21;100.00;100814.20;1491548;96;21148;-71
2021/12/12 04:05:24;;;;;;;21.93;10.53;;;;;;;-0.22;100.00;100808.49;1467062;97;21095;-70
2021/12/12 04:07:51;;;;;;;19.20;9.50;;;;;;;-0.23;100.00;100805.91;1466947;96;21203;-71
2021/12/12 04:10:20;;;;;;;20.53;9.77;;;;;;;-0.26;100.00;100795.47;1477958;95;21108;-71
2021/12/12 04:12:48;;;;;;;18.87;9.93;;;;;;;-0.31;100.00;100793.53;1490362;94;21084;-72
2021/12/12 04:15:16;;;;;;;22.07;10.67;;;;;;;-0.34;100.00;100790.55;1519811;94;21581;-71
2021/12/12 04:17:43;;;;;;;20.50;10.37;;;;;;;-0.34;100.00;100799.85;1536137;93;21133;-70
2021/12/12 04:20:16;;;;;;;20.53;10.30;;;;;;;-0.34;100.00;100810.96;1535916;92;21120;-71
2021/12/12 04:22:43;;;;;;;20.90;10.32;;;;;;;-0.33;100.00;100818.86;1468365;98;21163;-70
2021/12/12 04:25:11;;;;;;;22.03;10.60;;;;;;;-0.30;100.00;100826.67;1468661;96;21649;-71
2021/12/12 04:27:38;;;;;;;18.07;9.17;;;;;;;-0.32;100.00;100839.64;1468532;96;21108;-70
2021/12/12 04:30:07;;;;;;;20.43;9.80;;;;;;;-0.37;100.00;100839.91;1458410;98;21707;-70
2021/12/12 04:32:35;;;;;;;19.57;9.60;;;;;;;-0.39;100.00;100836.44;1437391;100;21610;-70
2021/12/12 04:35:20;;;;;;;19.93;10.07;;;;;;;-0.46;100.00;100816.00;1459734;98;21093;-70
2021/12/12 04:37:48;;;;;;;20.73;9.80;;;;;;;-0.49;100.00;100811.33;1437489;98;21137;-70
2021/12/12 04:40:18;;;;;;;21.90;11.20;;;;;;;-0.50;100.00;100814.91;1490111;94;21641;-70
2021/12/12 04:42:46;;;;;;;22.60;10.97;;;;;;;-0.50;100.00;100818.41;1518142;95;21580;-70
2021/12/12 04:46:04;;;;;;;22.20;11.20;;;;;;;-0.51;100.00;100827.34;1518488;94;21055;-71
2021/12/12 04:51:50;;;;;;;21.30;10.50;;;;;;;-0.55;100.00;100817.80;1512201;95;21561;-70
2021/12/12 04:54:33;;;;;;;21.35;10.30;;;;;;;-0.57;100.00;100827.64;1514392;94;21178;-71
2021/12/12 04:57:13;;;;;;;23.60;11.43;;;;;;;-0.61;100.00;100834.06;1513305;93;21065;-72
2021/12/12 04:59:56;;;;;;;24.77;11.63;;;;;;;-0.66;100.00;100850.71;1491494;95;21088;-73
2021/12/12 05:02:45;;;;;;;22.70;11.25;;;;;;;-0.67;100.00;100855.66;1492029;94;21076;-71
2021/12/12 05:05:32;;;;;;;21.30;10.63;;;;;;;-0.67;100.00;100861.81;1489579;96;21037;-73
2021/12/12 05:08:10;;;;;;;21.67;10.33;;;;;;;-0.66;100.00;100860.86;1491217;96;21061;-73
2021/12/12 05:10:48;;;;;;;22.23;10.90;;;;;;;-0.67;100.00;100876.90;1492418;94;21163;-72
2021/12/12 05:13:37;;;;;;;26.53;11.83;;;;;;;-0.71;100.00;100884.61;1490845;94;21084;-72
2021/12/12 05:16:11;;;;;;;22.40;12.00;;;;;;;-0.74;100.00;100890.07;1448301;99;21695;-72
2021/12/12 05:18:48;;;;;;;23.47;12.17;;;;;;;-0.77;100.00;100885.31;1448647;95;21285;-72
2021/12/12 05:21:11;;;;;;;27.62;14.55;;;;;;;-0.79;100.00;100881.88;1487000;95;21266;-73
2021/12/12 05:23:43;;;;;;;24.70;12.63;;;;;;;-0.79;100.00;100887.67;1538776;93;21046;-72
2021/12/12 05:26:14;;;;;;;25.63;13.10;;;;;;;-0.81;100.00;100882.43;1538862;93;21094;-72
2021/12/12 05:28:51;;;;;;;27.90;13.33;;;;;;;-0.79;100.00;100883.69;1530286;94;21089;-72
2021/12/12 05:31:19;;;;;;;27.00;13.13;;;;;;;-0.77;100.00;100897.27;1533051;93;21085;-72
2021/12/12 05:33:51;;;;;;;26.13;13.37;;;;;;;-0.72;100.00;100894.86;1532765;94;21069;-73
2021/12/12 05:36:18;;;;;;;24.00;13.77;;;;;;;-0.72;100.00;100897.05;1514740;94;21126;-72
2021/12/12 05:38:45;;;;;;;28.47;14.40;;;;;;;-0.72;100.00;100894.86;1532948;94;21077;-71
2021/12/12 05:41:12;;;;;;;27.47;15.00;;;;;;;-0.72;100.00;100893.54;1537008;92;21141;-73
2021/12/12 05:43:39;;;;;;;25.80;13.50;;;;;;;-0.71;100.00;100888.59;1542669;93;21651;-72
2021/12/12 05:46:06;;;;;;;28.90;14.93;;;;;;;-0.77;100.00;100878.67;1542377;93;21158;-72
2021/12/12 05:48:33;;;;;;;27.07;15.07;;;;;;;-0.78;100.00;100882.73;1542157;93;21108;-73
2021/12/12 05:51:00;;;;;;;24.60;12.70;;;;;;;-0.79;100.00;100885.86;1542434;93;21575;-72
2021/12/12 05:53:27;;;;;;;23.63;12.10;;;;;;;-0.80;100.00;100885.49;1582760;90;21068;-72
2021/12/12 05:55:54;;;;;;;25.57;13.67;;;;;;;-0.80;100.00;100878.85;1595932;90;21130;-72
2021/12/12 05:58:21;;;;;;;27.73;14.93;;;;;;;-0.81;100.00;100883.77;1596083;90;21690;-72
2021/12/12 06:00:54;;;;;;;26.97;13.83;;;;;;;-0.81;100.00;100875.80;1595967;90;21061;-72
2021/12/12 06:03:25;;;;;;;27.77;13.57;;;;;;;-0.78;100.00;100881.41;1573387;91;21061;-72
2021/12/12 06:05:53;;;;;;;26.80;13.90;;;;;;;-0.78;100.00;100874.77;1553600;91;21129;-72
2021/12/12 06:08:22;;;;;;;29.50;14.60;;;;;;;-0.77;100.00;100875.16;1573513;91;21163;-73
2021/12/12 06:10:49;;;;;;;29.57;16.33;;;;;;;-0.74;100.00;100879.00;1573271;91;21558;-72
2021/12/12 06:13:17;;;;;;;34.40;17.37;;;;;;;-0.72;100.00;100874.47;1573468;91;21133;-73
2021/12/12 06:15:50;;;;;;;33.90;16.80;;;;;;;-0.69;100.00;100871.66;1606017;88;21136;-72
2021/12/12 06:18:23;;;;;;;26.27;14.27;;;;;;;-0.68;100.00;100873.36;1621119;88;21531;-71
2021/12/12 06:20:50;;;;;;;25.93;14.33;;;;;;;-0.68;100.00;100880.00;1593765;90;21586;-73
2021/12/12 06:23:17;;;;;;;30.00;15.23;;;;;;;-0.71;100.00;100878.82;1593954;90;21465;-72
2021/12/12 06:25:44;;;;;;;32.97;16.83;;;;;;;-0.73;100.00;100867.42;1582188;90;21140;-71
2021/12/12 06:28:18;;;;;;;29.67;15.33;;;;;;;-0.73;100.00;100871.88;1574952;91;21035;-73
2021/12/12 06:30:45;;;;;;;28.80;14.43;;;;;;;-0.73;100.00;100860.78;1545545;92;21132;-73
2021/12/12 06:33:11;;;;;;;28.43;16.17;;;;;;;-0.71;100.00;100866.02;1517348;95;21047;-72
2021/12/12 06:35:38;;;;;;;31.43;16.80;;;;;;;-0.69;100.00;100861.48;1503548;95;21144;-72
2021/12/12 06:38:08;;;;;;;31.33;15.10;;;;;;;-0.69;100.00;100862.37;1503632;95;21136;-72
2021/12/12 06:40:37;;;;;;;30.27;15.67;;;;;;;-0.66;100.00;100868.83;1504031;94;21119;-72
2021/12/12 06:43:06;;;;;;;31.93;16.40;;;;;;;-0.63;100.00;100881.11;1524101;94;21164;-73
2021/12/12 06:45:33;;;;;;;30.80;15.17;;;;;;;-0.63;100.00;100875.80;1509655;95;21106;-72
2021/12/12 06:48:03;;;;;;;33.50;17.60;;;;;;;-0.64;100.00;100879.38;1523791;94;21144;-72
2021/12/12 06:50:30;;;;;;;26.07;14.20;;;;;;;-0.65;100.00;100879.86;1492004;95;21102;-73
2021/12/12 06:52:58;;;;;;;30.40;15.43;;;;;;;-0.66;100.00;100879.45;1523909;94;21101;-72
2021/12/12 06:55:24;;;;;;;29.70;15.73;;;;;;;-0.65;100.00;100883.84;1509944;95;21152;-72
2021/12/12 06:57:51;;;;;;;31.13;16.70;;;;;;;-0.67;100.00;100867.60;1532492;92;21073;-72
2021/12/12 07:00:21;;;;;;;29.60;15.20;;;;;;;-0.67;100.00;100870.26;1523893;94;21560;-72
2021/12/12 07:02:48;;;;;;;30.80;15.30;;;;;;;-0.66;100.00;100880.78;1523847;94;21093;-71
2021/12/12 07:05:18;;;;;;;30.53;15.90;;;;;;;-0.66;100.00;100878.60;1552264;92;21122;-72
2021/12/12 07:07:46;;;;;;;27.83;14.37;;;;;;;-0.61;100.00;100877.42;1537708;92;21110;-71
2021/12/12 07:10:15;;;;;;;30.33;16.23;;;;;;;-0.57;100.00;100868.82;1537275;92;21077;-72
2021/12/12 07:12:42;;;;;;;33.37;16.20;;;;;;;-0.59;100.00;100865.39;1533650;92;21057;-72
2021/12/12 07:15:11;;;;;;;31.73;16.10;;;;;;;-0.58;100.00;100869.78;1535482;92;21124;-73
2021/12/12 07:17:38;;;;;;;32.60;15.67;;;;;;;-0.57;100.00;100871.48;1563278;89;21113;-71
2021/12/12 07:20:09;;;;;;;30.00;13.97;;;;;;;-0.58;100.00;100870.63;1583532;89;21149;-71
2021/12/12 07:22:36;;;;;;;30.23;16.97;;;;;;;-0.58;100.00;100875.09;1584901;89;21038;-72
2021/12/12 07:25:04;;;;;;;32.73;17.30;;;;;;;-0.61;100.00;100861.95;1584421;89;21057;-72
2021/12/12 07:27:32;;;;;;;31.40;16.63;;;;;;;-0.61;100.00;100871.26;1624537;87;21085;-73
2021/12/12 07:29:59;;;;;;;32.37;16.47;;;;;;;-0.62;100.00;100871.73;1658349;86;21075;-71
2021/12/12 07:32:26;;;;;;;32.77;16.50;;;;;;;-0.61;100.00;100873.44;1658434;86;21007;-72
2021/12/12 07:34:53;;;;;;;39.53;21.07;;;;;;;-0.58;100.00;100882.58;1658383;86;21564;-73
2021/12/12 07:37:20;;;;;;;33.33;18.23;;;;;;;-0.56;100.00;100882.51;1658667;86;21516;-70
2021/12/12 07:39:47;;;;;;;35.87;18.87;;;;;;;-0.55;100.00;100874.91;1658822;86;21481;-72
2021/12/12 07:42:16;;;;;;;32.93;17.83;;;;;;;-0.55;100.00;100872.25;1666853;84;21017;-71
2021/12/12 07:44:44;;;;;;;33.07;17.57;;;;;;;-0.53;100.00;100860.22;1670380;86;21209;-71
2021/12/12 07:47:13;;;;;;;40.10;22.30;;;;;;;-0.54;100.00;100868.67;1670414;86;21069;-71
2021/12/12 07:49:44;;;;;;;34.93;18.80;;;;;;;-0.53;100.00;100870.84;1670496;86;21041;-72
2021/12/12 07:52:15;;;;;;;28.97;15.70;;;;;;;-0.53;100.00;100870.41;1670413;86;21023;-72
2021/12/12 07:54:42;;;;;;;31.03;15.60;;;;;;;-0.51;100.00;100874.28;1670310;86;21061;-72
2021/12/12 07:57:09;;;;;;;26.93;15.43;;;;;;;-0.53;100.00;100871.73;1670506;86;21070;-71
2021/12/12 07:59:37;;;;;;;32.47;16.83;;;;;;;-0.54;100.00;100869.16;1670490;86;21042;-72
2021/12/12 08:02:05;;;;;;;30.50;16.00;;;;;;;-0.55;100.00;100874.06;1670415;86;21041;-73
2021/12/12 08:04:33;;;;;;;29.10;16.03;;;;;;;-0.55;100.00;100860.78;1670214;86;21046;-72
2021/12/12 08:07:00;;;;;;;30.70;16.73;;;;;;;-0.51;100.00;100855.23;1670399;86;21029;-72
2021/12/12 08:09:28;;;;;;;31.17;16.57;;;;;;;-0.48;100.00;100863.50;1670562;86;21019;-73
2021/12/12 08:11:57;;;;;;;32.77;16.87;;;;;;;-0.47;100.00;100844.83;1670288;86;21082;-72
2021/12/12 08:14:26;;;;;;;32.27;17.50;;;;;;;-0.43;100.00;100847.70;1670223;86;21039;-72
2021/12/12 08:16:53;;;;;;;30.80;16.67;;;;;;;-0.42;100.00;100848.10;1670316;86;21065;-72
2021/12/12 08:19:23;;;;;;;33.20;18.17;;;;;;;-0.41;100.00;100847.18;1670426;86;21025;-71
2021/12/12 08:21:50;;;;;;;34.13;18.33;;;;;;;-0.39;100.00;100842.64;1670622;86;21042;-72
2021/12/12 08:24:17;;;;;;;33.30;17.43;;;;;;;-0.39;100.00;100834.66;1649016;86;21049;-70
2021/12/12 08:26:45;;;;;;;33.50;17.27;;;;;;;-0.36;100.00;100845.59;1670499;86;21080;-70
2021/12/12 08:29:13;;;;;;;27.17;15.20;;;;;;;-0.33;100.00;100837.94;1671796;86;21084;-70
2021/12/12 08:31:40;;;;;;;33.23;17.77;;;;;;;-0.33;100.00;100832.14;1670458;86;21076;-71
2021/12/12 08:34:10;;;;;;;35.27;18.17;;;;;;;-0.35;100.00;100837.13;1670282;86;21082;-70
2021/12/12 08:36:39;;;;;;;29.63;16.17;;;;;;;-0.35;100.00;100828.72;1670424;86;21090;-72
2021/12/12 08:39:07;;;;;;;29.83;15.40;;;;;;;-0.34;100.00;100830.89;1670546;86;21081;-71
2021/12/12 08:41:35;;;;;;;29.30;15.40;;;;;;;-0.35;100.00;100826.06;1667777;85;21090;-72
2021/12/12 08:44:04;;;;;;;32.13;17.13;;;;;;;-0.34;100.00;100828.23;1660339;86;21339;-72
2021/12/12 08:46:31;;;;;;;37.67;19.20;;;;;;;-0.34;100.00;100826.42;1659981;86;21038;-72
2021/12/12 08:48:58;;;;;;;31.03;16.37;;;;;;;-0.32;100.00;100823.69;1660069;86;21061;-72
2021/12/12 08:51:34;;;;;;;28.50;15.83;;;;;;;-0.33;100.00;100817.53;1659971;86;21611;-71
2021/12/12 08:54:13;;;;;;;29.13;15.67;;;;;;;-0.31;100.00;100810.33;1659940;86;21046;-72
2021/12/12 08:56:43;;;;;;;29.97;15.63;;;;;;;-0.30;100.00;100810.73;1660208;86;21124;-72
2021/12/12 08:59:19;;;;;;;32.10;16.63;;;;;;;-0.28;100.00;100797.36;1660241;86;21089;-71
2021/12/12 09:01:47;;;;;;;36.07;19.50;;;;;;;-0.26;100.00;100783.03;1660528;86;21061;-71
2021/12/12 09:04:14;;;;;;;32.77;18.23;;;;;;;-0.24;100.00;100786.94;1660078;86;21034;-72
2021/12/12 09:07:15;;;;;;;33.67;17.07;;;;;;;-0.23;100.00;100773.57;1660493;86;21014;-72
2021/12/12 09:10:21;;;;;;;33.53;17.03;;;;;;;-0.20;100.00;100773.86;1633760;88;21089;-72
2021/12/12 09:13:20;;;;;;;33.93;18.37;;;;;;;-0.21;100.00;100773.49;1579708;90;21022;-72
2021/12/12 09:16:00;;;;;;;35.63;18.43;;;;;;;-0.20;100.00;100781.35;1527394;93;21133;-73
2021/12/12 09:18:41;;;;;;;30.47;17.23;;;;;;;-0.17;100.00;100783.00;1528359;94;21572;-70
2021/12/12 09:21:23;;;;;;;28.77;15.97;;;;;;;-0.14;100.00;100780.63;1532551;93;21095;-71
2021/12/12 09:24:03;;;;;;;29.00;15.50;;;;;;;-0.13;100.00;100768.59;1536321;93;21084;-73
2021/12/12 09:26:25;;;;;;;31.73;17.17;;;;;;;-0.14;100.00;100764.23;1534055;93;21122;-77
2021/12/12 09:28:59;;;;;;;37.77;18.37;;;;;;;-0.15;100.00;100766.49;1536181;93;21129;-72
2021/12/12 09:31:34;;;;;;;32.83;17.10;;;;;;;-0.16;100.00;100767.45;1535885;93;21073;-72
2021/12/12 09:34:12;;;;;;;34.03;18.23;;;;;;;-0.10;100.00;100774.22;1502811;95;21183;-73
2021/12/12 09:36:55;;;;;;;32.83;18.47;;;;;;;-0.06;100.00;100771.77;1465722;98;21168;-71
2021/12/12 09:39:30;;;;;;;31.03;16.57;;;;;;;-0.06;100.00;100767.30;1426392;101;21704;-73
2021/12/12 09:42:51;;;;;;;37.33;18.67;;;;;;;0.00;100.00;100759.48;1427394;100;21127;-70
2021/12/12 09:45:36;;;;;;;32.17;17.73;;;;;;;0.07;100.00;100753.33;1422938;101;21150;-71
2021/12/12 09:52:04;;;;;;;34.40;18.10;;;;;;;0.12;100.00;100755.26;1424879;98;21553;-70
2021/12/12 09:54:42;;;;;;;32.70;17.93;;;;;;;0.11;100.00;100750.42;1461819;96;21130;-72
2021/12/12 09:57:19;;;;;;;36.23;18.63;;;;;;;0.08;100.00;100747.92;1430778;100;21179;-72
2021/12/12 10:00:31;;;;;;;35.63;19.93;;;;;;;0.10;100.00;100747.84;1450497;99;21090;-71
2021/12/12 10:03:03;;;;;;;32.13;17.47;;;;;;;0.14;100.00;100746.27;1451199;99;21592;-72
2021/12/12 10:06:01;;;;;;;28.50;15.48;;;;;;;0.13;100.00;100740.55;1446971;99;21214;-71
2021/12/12 10:08:45;;;;;;;34.37;17.43;;;;;;;0.12;100.00;100741.96;1450726;98;21158;-72
2021/12/12 10:11:26;;;;;;;34.10;17.17;;;;;;;0.13;100.00;100746.34;1450569;99;21126;-70
2021/12/12 10:13:58;;;;;;;34.13;18.77;;;;;;;0.11;100.00;100746.43;1454263;97;21106;-71
2021/12/12 10:16:36;;;;;;;35.68;20.00;;;;;;;0.08;100.00;100751.91;1455690;99;21228;-71
2021/12/12 10:19:27;;;;;;;35.13;19.17;;;;;;;0.04;100.00;100746.39;1452807;99;21645;-71
2021/12/12 10:22:12;;;;;;;33.67;17.80;;;;;;;0.05;100.00;100753.41;1459814;97;21119;-72
2021/12/12 10:25:10;;;;;;;32.90;17.60;;;;;;;0.03;100.00;100740.67;1475030;95;21058;-73
2021/12/12 10:28:03;;;;;;;33.00;17.70;;;;;;;0.02;100.00;100746.95;1475143;97;21270;-72
2021/12/12 10:30:44;;;;;;;36.30;20.63;;;;;;;-0.02;100.00;100755.58;1446714;97;21193;-71
2021/12/12 10:33:22;;;;;;;39.07;20.07;;;;;;;-0.07;100.00;100766.05;1528613;91;21451;-70
2021/12/12 10:36:09;;;;;;;34.63;19.80;;;;;;;-0.10;100.00;100768.42;1541001;92;21152;-73
2021/12/12 10:39:12;;;;;;;35.47;18.73;;;;;;;-0.11;100.00;100768.03;1597344;86;21029;-70
2021/12/12 10:41:43;;;;;;;38.27;20.13;;;;;;;-0.13;100.00;100757.95;1641523;87;21097;-71
2021/12/12 10:44:15;;;;;;;38.80;19.30;;;;;;;-0.13;100.00;100757.11;1593970;89;21239;-70
2021/12/12 10:47:01;;;;;;;37.80;19.37;;;;;;;-0.13;100.00;100755.78;1584306;89;21103;-70
2021/12/12 10:50:04;;;;;;;36.37;18.83;;;;;;;-0.15;100.00;100763.83;1574525;88;21106;-70
2021/12/12 10:53:09;;;;;;;36.37;19.63;;;;;;;-0.14;100.00;100763.35;1596163;88;21540;-71
2021/12/12 10:55:53;;;;;;;32.30;18.43;;;;;;;-0.15;100.00;100754.53;1597762;88;21596;-72
2021/12/12 10:58:30;;;;;;;37.07;21.23;;;;;;;-0.16;100.00;100749.30;1593181;88;21653;-71
2021/12/12 11:01:19;;;;;;;37.30;19.80;;;;;;;-0.19;100.00;100747.67;1530211;92;21524;-70
2021/12/12 11:03:54;;;;;;;35.73;19.03;;;;;;;-0.20;100.00;100754.77;1473010;96;21082;-71
2021/12/12 11:06:29;;;;;;;36.87;19.53;;;;;;;-0.22;100.00;100742.04;1472564;96;21066;-71
2021/12/12 11:09:05;;;;;;;34.97;19.00;;;;;;;-0.20;100.00;100741.48;1433612;99;21687;-71
2021/12/12 11:11:43;;;;;;;36.03;20.57;;;;;;;-0.18;100.00;100733.91;1406619;101;21691;-71
2021/12/12 11:14:29;;;;;;;41.37;22.43;;;;;;;-0.17;100.00;100731.17;1414650;101;21108;-72
2021/12/12 11:17:07;;;;;;;41.17;21.67;;;;;;;-0.14;100.00;100731.00;1406638;101;21134;-72
2021/12/12 11:20:06;;;;;;;40.13;20.13;;;;;;;-0.12;100.00;100721.14;1389029;102;21586;-71
2021/12/12 11:22:40;;;;;;;38.17;20.20;;;;;;;-0.11;100.00;100721.50;1388813;102;21189;-72
2021/12/12 11:25:11;;;;;;;37.48;21.23;;;;;;;-0.08;100.00;100717.83;1376532;104;21163;-72
2021/12/12 11:27:49;;;;;;;37.73;19.27;;;;;;;-0.12;100.00;100713.16;1372702;104;21076;-71
2021/12/12 11:30:24;;;;;;;34.07;19.83;;;;;;;-0.12;100.00;100708.33;1368261;104;21108;-70
2021/12/12 11:32:58;;;;;;;35.87;20.73;;;;;;;-0.09;100.00;100701.48;1366583;104;21621;-70
2021/12/12 11:35:24;;;;;;;32.73;18.23;;;;;;;-0.10;100.00;100687.34;1366016;103;21159;-69
2021/12/12 11:38:02;;;;;;;38.07;20.67;;;;;;;-0.12;100.00;100679.93;1366345;104;21597;-69
2021/12/12 11:40:57;;;;;;;37.77;21.00;;;;;;;-0.13;100.00;100692.83;1366833;104;21171;-71
2021/12/12 11:43:54;;;;;;;39.20;21.63;;;;;;;-0.13;100.00;100691.49;1362841;103;21163;-70
2021/12/12 11:46:40;;;;;;;44.87;26.87;;;;;;;-0.11;100.00;100677.64;1359459;105;21305;-71
2021/12/12 11:49:27;;;;;;;48.30;26.67;;;;;;;-0.06;100.00;100690.20;1360087;105;21179;-70
2021/12/12 11:52:03;;;;;;;44.80;25.00;;;;;;;-0.03;100.00;100687.38;1345494;107;21211;-71
2021/12/12 11:54:47;;;;;;;46.40;27.13;;;;;;;-0.03;100.00;100683.88;1322325;109;21287;-71